Airfield :
LOGIN :

Register | Disclaimer

   EN    FR    IT 

 










Legend :    VFR   Marginal VFR   IFR   Intensive IFR   Very Intensive IFR
Visi :
Ceiling :
>= 8 km
>= 3000ft
5 to 8 km
1000 to 3000 ft
1500m to 5 km
500 to 1000 ft
800 to 1500m
200 to 500 ft
< 800m
< 200 ft
Symbols :   Thunderstorms  Fog  Heavy snow  Heavy precipitations  Wind > 20 kt
SIGMETs :     Misc.  Thunderstorms  Icing  Turbulence  Mountain Waves  Volcanic Ashes







- Airport Elevation : 121 ft
- IATA code : HUY
- Download approach charts


EGNJ - Humberside

CURRENT METAR :
  • 191750Z 16014KT 4000 BR SCT009 SCT012 BKN020 16/15 Q0998

EXPIRED METARs :
  • 191720Z 16013KT 3000 -RADZ SCT006 SCT012 BKN017 16/15 Q0998
  • 191650Z 15011KT 3000 BR SCT004 OVC014 16/15 Q0999
  • 191620Z 11008KT 1800 -RA BR SCT004 BKN007 15/15 Q0999
  • 191550Z 11008KT 1600 -RA BR BKN002 15/15 Q0999
  • 191520Z 09009KT 0800 R20/1200 -RA FG OVC002 14/14 Q0999

TAF TAF EGNJ
Valid from the 19 at 18:00 until the 20 at 03:00 UTC


191702Z 1918/2003 11008KT 3000 BR SCT004 BKN015
BECMG 1918/1921 18011KT 7000 NSW
PROB40
TEMPO 1918/2003 BKN007
ATIS : +44 1652 682 020
No reported NOTAMs for that airfield.
1 SIGMET reported for the London FIR (EGTT) :
 
Severe turbulence
EGTT SIGMET 02 VALID 191720/192020 EGRR
EGTT LONDON FIR SEV TURB FCST WI N5210 W00549 - N4946 W00315 - N4909 W00623 - N5100 W00800 - N5210 W00549 SFC/FL060 MOV E 20KT WKN=



MET'MAP, your aeronautical weather chart ! - Copyright ORBIFLY December 2007 - Disclaimer

ORBIFLY MET'MAP TEAM :

Programming & Development : Alexandra Zaïnal
Concept & Development : Baudouin d'Aumeries
Co-Development & Prog : Marc-Olivier Méhu
Technical & hardware support : Manuel Goepfert

Contact : metmap@orbifly.com




SOURCES & CREDITS :

   NOAA